地図

経路データ

SID SEASON NUMBER BASIN SUBBASIN NAME ISO_TIME NATURE LAT LON WMO_WIND WMO_PRES WMO_AGENCY TRACK_TYPE DIST2LAND LANDFALL IFLAG USA_AGENCY USA_ATCF_ID USA_LAT USA_LON USA_RECORD USA_STATUS USA_WIND USA_PRES USA_SSHS USA_R34_NE USA_R34_SE USA_R34_SW USA_R34_NW USA_R50_NE USA_R50_SE USA_R50_SW USA_R50_NW USA_R64_NE USA_R64_SE USA_R64_SW USA_R64_NW USA_POCI USA_ROCI USA_RMW USA_EYE TOKYO_LAT TOKYO_LON TOKYO_GRADE TOKYO_WIND TOKYO_PRES TOKYO_R50_DIR TOKYO_R50_LONG TOKYO_R50_SHORT TOKYO_R30_DIR TOKYO_R30_LONG TOKYO_R30_SHORT TOKYO_LAND CMA_LAT CMA_LON CMA_CAT CMA_WIND CMA_PRES HKO_LAT HKO_LON HKO_CAT HKO_WIND HKO_PRES NEWDELHI_LAT NEWDELHI_LON NEWDELHI_GRADE NEWDELHI_WIND NEWDELHI_PRES NEWDELHI_CI NEWDELHI_DP NEWDELHI_POCI REUNION_LAT REUNION_LON REUNION_TYPE REUNION_WIND REUNION_PRES REUNION_TNUM REUNION_CI REUNION_RMW REUNION_R34_NE REUNION_R34_SE REUNION_R34_SW REUNION_R34_NW REUNION_R50_NE REUNION_R50_SE REUNION_R50_SW REUNION_R50_NW REUNION_R64_NE REUNION_R64_SE REUNION_R64_SW REUNION_R64_NW BOM_LAT BOM_LON BOM_TYPE BOM_WIND BOM_PRES BOM_TNUM BOM_CI BOM_RMW BOM_R34_NE BOM_R34_SE BOM_R34_SW BOM_R34_NW BOM_R50_NE BOM_R50_SE BOM_R50_SW BOM_R50_NW BOM_R64_NE BOM_R64_SE BOM_R64_SW BOM_R64_NW BOM_ROCI BOM_POCI BOM_EYE BOM_POS_METHOD BOM_PRES_METHOD NADI_LAT NADI_LON NADI_CAT NADI_WIND NADI_PRES WELLINGTON_LAT WELLINGTON_LON WELLINGTON_WIND WELLINGTON_PRES DS824_LAT DS824_LON DS824_STAGE DS824_WIND DS824_PRES TD9636_LAT TD9636_LON TD9636_STAGE TD9636_WIND TD9636_PRES TD9635_LAT TD9635_LON TD9635_WIND TD9635_PRES TD9635_ROCI NEUMANN_LAT NEUMANN_LON NEUMANN_CLASS NEUMANN_WIND NEUMANN_PRES MLC_LAT MLC_LON MLC_CLASS MLC_WIND MLC_PRES USA_GUST BOM_GUST BOM_GUST_PER REUNION_GUST REUNION_GUST_PER USA_SEAHGT USA_SEARAD_NE USA_SEARAD_SE USA_SEARAD_SW USA_SEARAD_NW STORM_SPEED STORM_DIR
2008080S17163 2008 16 SP MM NOT_NAMED 2008-03-20 00:00:00 TS -17.4000 163.400 main 321 289 O_____________ jtwc_sh SH242008 -17.4000 163.400 TD 25 1004 -1 1008 320 70 6 168
2008080S17163 2008 16 SP MM NOT_NAMED 2008-03-20 03:00:00 TS -17.6900 163.452 main 286 254 P_____________ SH242008 -17.6900 163.452 TD 27 1002 -1 1007 320 60 6 171
2008080S17163 2008 16 SP MM NOT_NAMED 2008-03-20 06:00:00 TS -18.0000 163.500 main 254 221 O_____________ jtwc_sh SH242008 -18.0000 163.500 TD 30 1000 -1 1007 320 50 7 172
2008080S17163 2008 16 SP MM NOT_NAMED 2008-03-20 09:00:00 TS -18.3425 163.543 main 221 175 P_____________ SH242008 -18.3425 163.543 TD 30 1000 -1 1007 310 47 7 172
2008080S17163 2008 16 SP MM NOT_NAMED 2008-03-20 12:00:00 TS -18.7000 163.600 main 175 140 O_____________ jtwc_sh SH242008 -18.7000 163.600 TD 30 1000 -1 1007 300 45 7 168
2008080S17163 2008 16 SP MM NOT_NAMED 2008-03-20 15:00:00 TS -19.0500 163.700 main 129 94 P_____________ SH242008 -19.0500 163.700 TD 32 998 -1 1007 225 52 7 165
2008080S17163 2008 16 SP MM NOT_NAMED 2008-03-20 18:00:00 TS -19.4000 163.800 main 94 59 O_____________ jtwc_sh SH242008 -19.4000 163.800 TS 35 996 0 1007 150 60 7 168
2008080S17163 2008 16 SP MM NOT_NAMED 2008-03-20 21:00:00 TS -19.7575 163.865 main 49 23 P_____________ SH242008 -19.7575 163.865 TS 35 996 0 1007 150 60 7 172
2008080S17163 2008 16 SP MM NOT_NAMED 2008-03-21 00:00:00 TS -20.1000 163.900 main 23 10 O_____________ jtwc_sh SH242008 -20.1000 163.900 TS 35 996 0 1007 150 60 7 177
2008080S17163 2008 16 SP MM NOT_NAMED 2008-03-21 03:00:00 TS -20.4150 163.915 main 15 15 P_____________ SH242008 -20.4150 163.915 TS 35 996 0 1007 160 52 6 179
2008080S17163 2008 16 SP MM NOT_NAMED 2008-03-21 06:00:00 TS -20.7000 163.900 main 38 38 O_____________ jtwc_sh SH242008 -20.7000 163.900 TS 35 996 0 1007 170 45 5 184
2008080S17163 2008 16 SP MM NOT_NAMED 2008-03-21 09:00:00 TS -20.9575 163.865 main 56 56 P_____________ SH242008 -20.9575 163.865 TS 35 996 0 1007 170 45 5 191
2008080S17163 2008 16 SP MM NOT_NAMED 2008-03-21 12:00:00 TS -21.2000 163.800 main 76 76 O_____________ jtwc_sh SH242008 -21.2000 163.800 TS 35 996 0 1007 170 45 5 195
2008080S17163 2008 16 SP MM NOT_NAMED 2008-03-21 15:00:00 TS -21.4650 163.722 main 106 106 P_____________ SH242008 -21.4650 163.722 TS 32 998 -1 1007 150 50 5 200
2008080S17163 2008 16 SP MM NOT_NAMED 2008-03-21 18:00:00 TS -21.7000 163.600 main 130 130 O_____________ jtwc_sh SH242008 -21.7000 163.600 TD 30 1000 -1 1007 130 55 5 213
2008080S17163 2008 16 SP MM NOT_NAMED 2008-03-21 21:00:00 TS -21.8875 163.423 main 160 160 P_____________ SH242008 -21.8875 163.423 TD 27 1002 -1 1007 130 55 5 231
2008080S17163 2008 16 SP MM NOT_NAMED 2008-03-22 00:00:00 TS -22.0000 163.200 main 182 182 O_____________ jtwc_sh SH242008 -22.0000 163.200 TD 25 1004 -1 1007 130 55 5 251
2008080S17163 2008 16 SP MM NOT_NAMED 2008-03-22 03:00:00 TS -22.0375 162.950 main 205 205 P_____________ SH242008 -22.0375 162.950 TD 25 1004 -1 5 270
2008080S17163 2008 16 SP MM NOT_NAMED 2008-03-22 06:00:00 TS -22.0000 162.700 main 221 221 O_____________ jtwc_sh SH242008 -22.0000 162.700 TD 25 1004 -1 4 284
2008080S17163 2008 16 SP MM NOT_NAMED 2008-03-22 09:00:00 TS -21.9300 162.485 main 232 232 P_____________ SH242008 -21.9300 162.485 TD 25 1004 -1 4 298
2008080S17163 2008 16 SP MM NOT_NAMED 2008-03-22 12:00:00 TS -21.8000 162.300 main 243 235 O_____________ jtwc_sh SH242008 -21.8000 162.300 TD 25 1004 -1 5 317
2008080S17163 2008 16 SP MM NOT_NAMED 2008-03-22 15:00:00 TS -21.5999 162.150 main 236 238 P_____________ SH242008 -21.5999 162.150 TD 22 1005 -1 5 325
2008080S17163 2008 16 SP MM NOT_NAMED 2008-03-22 18:00:00 NR -21.4000 162.000 main 241 241 O_____________ jtwc_sh SH242008 -21.4000 162.000 DB 20 1007 -3 4 313
2008080S17163 2008 16 SP MM NOT_NAMED 2008-03-22 21:00:00 NR -21.3075 161.815 main 254 254 P_____________ SH242008 -21.3075 161.815 DB 20 1007 -3 4 298
2008080S17163 2008 16 SP MM NOT_NAMED 2008-03-23 00:00:00 NR -21.2000 161.600 main 269 269 O_____________ jtwc_sh SH242008 -21.2000 161.600 DB 20 1007 -3 5 307
2008080S17163 2008 16 SP MM NOT_NAMED 2008-03-23 03:00:00 NR -20.9875 161.365 main 281 281 P_____________ SH242008 -20.9875 161.365 DB 20 1007 -3 7 317
2008080S17163 2008 16 SP MM NOT_NAMED 2008-03-23 06:00:00 NR -20.7000 161.100 main 305 303 O_____________ jtwc_sh SH242008 -20.7000 161.100 DB 20 1007 -3 8 321
2008080S17163 2008 16 SP MM NOT_NAMED 2008-03-23 09:00:00 NR -20.3424 160.815 main 333 333 P_____________ SH242008 -20.3424 160.815 DB 20 1007 -3 9 321
2008080S17163 2008 16 SP MM NOT_NAMED 2008-03-23 12:00:00 NR -20.0000 160.500 main 366 366 O_____________ jtwc_sh SH242008 -20.0000 160.500 DB 20 1007 -3 8 313
2008080S17163 2008 16 SP MM NOT_NAMED 2008-03-23 15:00:00 NR -19.7700 160.158 main 400 400 P_____________ SH242008 -19.7700 160.158 DB 20 1007 -3 8 301
2008080S17163 2008 16 SP EA NOT_NAMED 2008-03-23 18:00:00 NR -19.6000 159.800 main 445 445 O_____________ jtwc_sh SH242008 -19.6000 159.800 DB 20 1007 -3 8 296
2008080S17163 2008 16 SP EA NOT_NAMED 2008-03-23 21:00:00 NR -19.4350 159.435 main 491 491 P_____________ SH242008 -19.4350 159.435 DB 20 1007 -3 7 294
2008080S17163 2008 16 SP EA NOT_NAMED 2008-03-24 00:00:00 NR -19.3000 159.100 main 524 524 O_____________ jtwc_sh SH242008 -19.3000 159.100 DB 20 1007 -3 6 294
2008080S17163 2008 16 SP EA NOT_NAMED 2008-03-24 03:00:00 NR -19.1849 158.835 main 557 557 P_____________ SH242008 -19.1849 158.835 DB 20 1007 -3 5 293
2008080S17163 2008 16 SP EA NOT_NAMED 2008-03-24 06:00:00 NR -19.1000 158.600 main 580 580 O_____________ jtwc_sh SH242008 -19.1000 158.600 DB 20 1007 -3 5 288
2008080S17163 2008 16 SP EA NOT_NAMED 2008-03-24 09:00:00 NR -19.0350 158.350 main 604 604 P_____________ SH242008 -19.0350 158.350 DB 20 1007 -3 5 282
2008080S17163 2008 16 SP EA NOT_NAMED 2008-03-24 12:00:00 NR -19.0000 158.100 main 634 634 O_____________ jtwc_sh SH242008 -19.0000 158.100 DB 20 1007 -3 5 276
2008080S17163 2008 16 SP EA NOT_NAMED 2008-03-24 15:00:00 NR -18.9851 157.820 main 665 665 P_____________ SH242008 -18.9851 157.820 DB 20 1007 -3 5 270
2008080S17163 2008 16 SP EA NOT_NAMED 2008-03-24 18:00:00 NR -19.0000 157.600 main 685 685 O_____________ jtwc_sh SH242008 -19.0000 157.600 DB 20 1007 -3 3 260
2008080S17163 2008 16 SP EA NOT_NAMED 2008-03-24 21:00:00 NR -19.0349 157.513 main 695 693 P_____________ SH242008 -19.0349 157.513 DB 20 1007 -3 1 223
2008080S17163 2008 16 SP EA NOT_NAMED 2008-03-25 00:00:00 NR -19.1000 157.500 main 693 691 O_____________ jtwc_sh SH242008 -19.1000 157.500 DB 20 1007 -3 2 194
2008080S17163 2008 16 SP EA NOT_NAMED 2008-03-25 03:00:00 NR -19.2449 157.455 main 691 689 P_____________ SH242008 -19.2449 157.455 DB 20 1007 -3 2 172
2008080S17163 2008 16 SP EA NOT_NAMED 2008-03-25 06:00:00 NR -19.3000 157.500 main 689 670 O_____________ jtwc_sh SH242008 -19.3000 157.500 DB 20 1007 -3 3 59
2008080S17163 2008 16 SP EA NOT_NAMED 2008-03-25 09:00:00 NR -19.0951 157.720 main 672 650 P_____________ SH242008 -19.0951 157.720 DB 20 1007 -3 7 43
2008080S17163 2008 16 SP EA NOT_NAMED 2008-03-25 12:00:00 NR -18.8000 158.000 main 650 637 O_____________ jtwc_sh SH242008 -18.8000 158.000 DB 20 1007 -3 7 43
2008080S17163 2008 16 SP EA NOT_NAMED 2008-03-25 15:00:00 NR -18.5850 158.222 main 637 624 P_____________ SH242008 -18.5850 158.222 DB 20 1007 -3 6 43
2008080S17163 2008 16 SP EA NOT_NAMED 2008-03-25 18:00:00 NR -18.4000 158.400 main 624 618 O_____________ jtwc_sh SH242008 -18.4000 158.400 DB 20 1007 -3 4 39
2008080S17163 2008 16 SP EA NOT_NAMED 2008-03-25 21:00:00 NR -18.2425 158.518 main 623 613 P_____________ SH242008 -18.2425 158.518 DB 20 1007 -3 4 32
2008080S17163 2008 16 SP EA NOT_NAMED 2008-03-26 00:00:00 NR -18.1000 158.600 main 618 O_____________ jtwc_sh SH242008 -18.1000 158.600 DB 20 1007 -3 3 29

デジタル台風データ・検索

IBTrACS Databaseについて

本データベースは、米国NOAAが公開する1842年以降の世界の熱帯低気圧のベストトラックデータアーカイブInternational Best Track Archive for Climate Stewardship (IBTrACS)を、ウェブで閲覧しやすい形式に変換したものです。

最終更新日:2021-12-06